Time;durP1;ratioP1;P1;durP2;ratioP2;P2;SDS_P1;SDS_P2;PMS_P1;PMS_P2;Temp;Humidity;BMP_temperature;BMP_pressure;BME280_temperature;BME280_humidity;BME280_pressure;Samples;Min_cycle;Max_cycle;Signal;HPM_P1;HPM_P2
2021/12/24 00:00:19;;;;;;;;;11.00;10.00;;;;;20.59;32.65;100853.91;5053381;28;46488;-68
2021/12/24 00:02:44;;;;;;;;;10.50;10.25;;;;;20.60;32.66;100854.75;5055035;28;45488;-67
2021/12/24 00:05:11;;;;;;;;;10.00;9.75;;;;;20.55;32.55;100849.97;5053213;28;45373;-68
2021/12/24 00:07:36;;;;;;;;;12.00;11.75;;;;;20.56;32.75;100841.03;5053588;28;45614;-68
2021/12/24 00:10:04;;;;;;;;;13.00;13.00;;;;;20.58;32.51;100843.53;5051405;28;45690;-68
2021/12/24 00:12:33;;;;;;;;;13.75;13.75;;;;;20.51;32.43;100825.69;5053353;28;45390;-68
2021/12/24 00:15:03;;;;;;;;;14.00;12.50;;;;;20.54;32.71;100839.53;5054066;28;45679;-68
2021/12/24 00:17:32;;;;;;;;;13.75;12.50;;;;;20.58;32.75;100838.22;5054918;28;45589;-68
2021/12/24 00:20:27;;;;;;;;;12.00;11.75;;;;;20.57;32.73;100837.41;5034721;28;46642;-67
2021/12/24 00:36:18;;;;;;;;;13.25;10.25;;;;;20.57;32.71;100816.25;5037363;28;45739;-68
2021/12/24 00:38:44;;;;;;;;;12.75;11.50;;;;;20.60;32.53;100815.09;5055147;28;45401;-68
2021/12/24 00:41:09;;;;;;;;;10.25;10.25;;;;;20.56;32.75;100821.69;5052526;28;45441;-67
2021/12/24 00:43:35;;;;;;;;;14.25;13.50;;;;;20.59;32.83;100814.25;5052829;28;45374;-68
2021/12/24 00:46:00;;;;;;;;;12.50;10.00;;;;;20.55;32.78;100804.19;5052195;28;46336;-68
2021/12/24 00:48:25;;;;;;;;;11.50;11.00;;;;;20.60;32.76;100804.50;5051524;28;45500;-68
2021/12/24 00:56:14;;;;;;;;;11.00;9.50;;;;;20.57;32.89;100781.06;5052862;28;45331;-68
2021/12/24 00:58:41;;;;;;;;;12.00;11.00;;;;;20.57;32.94;100781.06;5052498;28;45313;-68
2021/12/24 01:01:09;;;;;;;;;13.00;11.00;;;;;20.56;32.84;100780.22;5050615;28;47398;-68
2021/12/24 01:03:35;;;;;;;;;11.00;10.25;;;;;20.56;32.55;100782.88;5052703;28;45468;-68
2021/12/24 01:06:01;;;;;;;;;11.25;11.25;;;;;20.41;32.77;100756.34;5053294;28;45435;-68
2021/12/24 01:08:26;;;;;;;;;12.50;12.25;;;;;20.58;32.82;100791.44;5056531;28;45374;-68
2021/12/24 01:10:59;;;;;;;;;14.00;11.00;;;;;20.61;32.88;100787.63;5055696;28;45307;-68
2021/12/24 01:13:26;;;;;;;;;11.50;10.00;;;;;20.61;32.64;100793.75;5055654;28;45383;-68
2021/12/24 01:15:59;;;;;;;;;11.25;10.75;;;;;20.60;32.82;100794.78;5055982;28;45351;-68
2021/12/24 01:21:49;;;;;;;;;11.00;10.75;;;;;20.59;32.81;100785.19;4995034;28;45989;-68
2021/12/24 01:24:20;;;;;;;;;11.00;8.75;;;;;20.57;32.75;100771.31;4995038;28;45385;-68
2021/12/24 01:26:58;;;;;;;;;11.00;10.25;;;;;20.63;32.82;100783.03;4991758;28;45512;-68
2021/12/24 01:42:45;;;;;;;;;12.75;12.00;;;;;20.65;32.93;100790.78;4994518;28;46043;-68
2021/12/24 01:45:27;;;;;;;;;11.25;9.50;;;;;20.65;33.12;100788.13;4994486;28;45307;-68
2021/12/24 01:47:56;;;;;;;;;12.75;9.25;;;;;20.66;32.85;100784.50;4991911;28;45416;-68
2021/12/24 01:50:22;;;;;;;;;10.25;10.25;;;;;20.66;32.85;100780.03;4994955;28;45543;-68
2021/12/24 01:52:49;;;;;;;;;11.75;10.50;;;;;20.60;32.81;100764.88;5037303;28;45571;-68
2021/12/24 01:55:17;;;;;;;;;14.00;13.25;;;;;20.67;32.80;100776.38;5055281;28;45409;-67
2021/12/24 01:57:43;;;;;;;;;13.25;11.50;;;;;20.68;32.60;100764.00;5055323;28;45574;-68
2021/12/24 02:00:12;;;;;;;;;10.25;8.75;;;;;20.67;32.73;100765.81;5055021;28;45301;-68
2021/12/24 02:02:37;;;;;;;;;13.75;12.75;;;;;20.64;32.79;100745.00;5057216;28;48956;-67
2021/12/24 02:05:03;;;;;;;;;10.75;10.75;;;;;20.63;33.18;100741.53;5055027;28;45543;-67
2021/12/24 02:07:28;;;;;;;;;11.75;10.50;;;;;20.66;32.96;100753.56;5053495;28;45387;-68
2021/12/24 02:09:55;;;;;;;;;9.25;9.25;;;;;20.66;32.96;100744.84;5054980;28;45477;-68
2021/12/24 02:12:22;;;;;;;;;9.50;4.25;;;;;20.66;32.98;100742.22;5054776;28;46498;-67
2021/12/24 02:14:51;;;;;;;;;11.25;10.00;;;;;20.62;33.08;100744.34;5057169;28;45292;-68
2021/12/24 02:17:38;;;;;;;;;11.75;11.75;;;;;20.66;33.03;100755.44;5055596;28;45312;-67
2021/12/24 02:28:39;;;;;;;;;14.75;11.50;;;;;20.62;33.06;100739.91;5053446;28;45523;-68
2021/12/24 02:31:05;;;;;;;;;12.75;12.00;;;;;20.60;33.22;100726.03;5054549;28;45865;-68
2021/12/24 02:33:31;;;;;;;;;14.50;13.75;;;;;20.64;33.17;100723.84;5054800;28;45417;-68
2021/12/24 02:35:57;;;;;;;;;12.75;10.00;;;;;20.62;33.04;100713.47;5056025;28;45414;-68
2021/12/24 02:38:22;;;;;;;;;14.00;12.25;;;;;20.61;32.87;100705.69;5056909;28;45430;-67
2021/12/24 02:40:48;;;;;;;;;14.00;11.00;;;;;20.65;33.05;100711.47;5054156;28;45381;-67
2021/12/24 02:43:17;;;;;;;;;12.25;10.00;;;;;20.65;32.98;100712.28;5054377;28;45526;-67
2021/12/24 02:45:44;;;;;;;;;11.00;8.75;;;;;20.63;33.14;100709.00;5052814;28;45411;-67
2021/12/24 02:56:17;;;;;;;;;10.50;10.00;;;;;20.61;33.11;100711.81;5054031;28;45424;-67
2021/12/24 02:58:45;;;;;;;;;13.00;11.75;;;;;20.58;33.38;100714.00;5052824;28;45330;-68
2021/12/24 03:01:15;;;;;;;;;11.50;10.00;;;;;20.62;33.23;100728.50;5054355;28;47944;-68
2021/12/24 03:03:40;;;;;;;;;15.50;13.00;;;;;20.60;33.14;100718.09;5054184;28;47794;-68
2021/12/24 03:06:06;;;;;;;;;10.00;8.75;;;;;20.62;33.12;100713.47;5054185;28;45480;-68
2021/12/24 03:08:33;;;;;;;;;13.25;10.75;;;;;20.62;33.06;100712.63;5056330;28;45412;-68
2021/12/24 03:10:59;;;;;;;;;10.75;9.75;;;;;20.63;33.19;100703.72;5053839;28;45373;-68
2021/12/24 03:13:26;;;;;;;;;11.75;9.00;;;;;20.63;33.24;100699.22;5051560;28;45313;-68
2021/12/24 03:15:57;;;;;;;;;11.00;10.00;;;;;20.60;33.16;100678.47;5053609;28;45442;-68
2021/12/24 03:18:27;;;;;;;;;8.00;8.00;;;;;20.59;33.15;100670.69;5037303;28;45309;-68
2021/12/24 03:26:34;;;;;;;;;10.25;10.00;;;;;20.61;33.25;100669.50;5011491;28;45395;-68
2021/12/24 03:29:00;;;;;;;;;9.75;9.00;;;;;20.56;33.29;100652.53;5011563;28;45466;-68
2021/12/24 03:31:25;;;;;;;;;11.00;11.00;;;;;20.61;33.11;100658.13;4990852;28;45667;-68
2021/12/24 03:33:53;;;;;;;;;12.00;9.50;;;;;20.59;33.05;100638.97;4999912;28;47020;-67
2021/12/24 03:36:21;;;;;;;;;9.00;9.00;;;;;20.61;33.22;100642.25;4994900;28;45501;-68
2021/12/24 03:38:46;;;;;;;;;8.00;8.00;;;;;20.60;33.06;100649.38;5008960;28;45648;-68
2021/12/24 03:41:12;;;;;;;;;11.25;10.00;;;;;20.58;33.25;100635.50;5011529;28;45316;-67
2021/12/24 03:43:37;;;;;;;;;11.75;9.50;;;;;20.55;33.10;100612.09;5011207;28;46299;-68
2021/12/24 03:46:07;;;;;;;;;9.50;9.25;;;;;20.62;33.22;100618.31;5011144;28;45410;-67
2021/12/24 03:48:54;;;;;;;;;9.25;8.00;;;;;20.58;33.14;100616.19;4995012;28;45302;-67
2021/12/24 03:51:45;;;;;;;;;12.00;10.75;;;;;20.57;33.30;100612.72;4995719;28;45477;-68
2021/12/24 03:56:55;;;;;;;;;13.00;11.00;;;;;20.61;33.28;100635.16;5009710;28;46968;-68
2021/12/24 03:59:20;;;;;;;;;10.00;10.00;;;;;20.55;33.14;100633.22;5012024;28;45513;-67
2021/12/24 04:01:46;;;;;;;;;10.75;9.75;;;;;20.65;33.37;100648.03;5047612;28;45552;-68
2021/12/24 04:04:11;;;;;;;;;13.25;10.75;;;;;20.63;33.25;100637.63;5051740;28;45511;-68
2021/12/24 04:06:36;;;;;;;;;12.25;9.75;;;;;20.60;33.43;100637.97;5053392;28;45374;-67
2021/12/24 04:09:04;;;;;;;;;11.25;10.25;;;;;20.65;33.28;100651.50;5053730;28;45727;-67
2021/12/24 04:11:30;;;;;;;;;10.75;10.50;;;;;20.62;33.35;100642.09;5055421;28;45311;-68
2021/12/24 04:13:55;;;;;;;;;12.50;10.00;;;;;20.61;33.33;100635.16;5052906;28;45584;-68
2021/12/24 04:16:21;;;;;;;;;10.00;8.75;;;;;20.62;33.08;100642.09;5051927;28;45374;-68
2021/12/24 04:26:42;;;;;;;;;10.50;10.00;;;;;20.65;33.37;100624.22;5054561;28;45383;-67
2021/12/24 04:29:08;;;;;;;;;10.75;10.00;;;;;20.59;33.47;100618.66;5052866;28;45559;-68
2021/12/24 04:32:06;;;;;;;;;8.50;8.00;;;;;20.65;33.37;100630.34;5053018;28;45618;-68
2021/12/24 04:34:26;;;;;;;;;11.75;9.25;;;;;20.65;33.42;100633.00;5051330;28;45285;-68
2021/12/24 04:51:00;;;;;;;;;12.25;11.75;;;;;20.61;33.34;100631.69;5007110;28;45582;-68
2021/12/24 04:51:18;;;;;;;;;11.00;8.50;;;;;20.58;33.42;100617.00;5012332;28;45368;-68
2021/12/24 05:04:46;;;;;;;;;9.25;9.25;;;;;20.61;33.63;100621.94;5001388;28;45481;-67
2021/12/24 05:07:40;;;;;;;;;11.00;11.00;;;;;20.55;33.42;100604.16;5000801;28;46271;-67
2021/12/24 05:10:00;;;;;;;;;9.50;9.50;;;;;20.62;33.43;100630.69;5000931;28;45450;-68
2021/12/24 05:12:25;;;;;;;;;11.25;10.50;;;;;20.60;33.46;100632.69;4997566;28;45545;-68
2021/12/24 05:14:51;;;;;;;;;12.25;11.00;;;;;20.62;33.36;100630.69;4999991;28;45364;-68
2021/12/24 05:17:25;;;;;;;;;10.00;8.00;;;;;20.62;33.48;100628.88;5051608;28;45311;-68
2021/12/24 05:22:34;;;;;;;;;11.75;9.50;;;;;20.57;33.63;100623.28;5054141;28;45292;-68
2021/12/24 05:25:00;;;;;;;;;9.50;9.00;;;;;20.60;33.55;100630.06;5055827;28;45478;-68
2021/12/24 05:27:26;;;;;;;;;10.75;10.75;;;;;20.60;33.46;100636.16;5055708;28;46254;-67
2021/12/24 05:29:53;;;;;;;;;9.00;7.75;;;;;20.58;33.47;100630.22;5057312;28;45352;-68
2021/12/24 05:32:18;;;;;;;;;10.75;10.75;;;;;20.57;33.55;100628.59;5056469;28;45413;-67
2021/12/24 05:34:43;;;;;;;;;11.00;11.00;;;;;20.40;33.46;100604.09;5053712;28;45325;-67
2021/12/24 05:37:09;;;;;;;;;10.25;10.25;;;;;20.60;33.47;100632.69;5054088;28;45750;-68
2021/12/24 05:39:34;;;;;;;;;10.50;9.75;;;;;20.61;33.58;100629.03;5055619;28;45359;-68
2021/12/24 05:42:00;;;;;;;;;12.25;9.25;;;;;20.57;33.62;100631.22;5056783;28;45417;-68
2021/12/24 05:44:26;;;;;;;;;9.50;9.50;;;;;20.60;33.53;100624.75;5056859;28;45366;-68
2021/12/24 05:46:51;;;;;;;;;8.25;8.25;;;;;20.61;33.50;100624.56;5055225;28;46243;-68
2021/12/24 05:49:17;;;;;;;;;14.00;11.50;;;;;20.58;33.56;100617.00;5054959;28;45476;-68
2021/12/24 05:51:42;;;;;;;;;11.25;8.25;;;;;20.59;33.68;100609.88;5055672;28;46006;-67
2021/12/24 05:54:07;;;;;;;;;9.00;9.00;;;;;20.60;33.98;100599.16;5054481;28;45555;-68
2021/12/24 05:56:33;;;;;;;;;12.75;10.50;;;;;20.61;33.62;100597.31;5057411;28;46165;-67
2021/12/24 05:58:58;;;;;;;;;9.00;7.75;;;;;20.56;33.63;100578.53;5055180;28;45434;-68
2021/12/24 06:01:24;;;;;;;;;12.75;11.25;;;;;20.62;33.59;100589.22;5053324;28;45358;-68
2021/12/24 06:03:49;;;;;;;;;7.00;6.25;;;;;20.63;33.75;100592.69;5055120;28;45288;-67
2021/12/24 06:06:15;;;;;;;;;9.75;9.75;;;;;20.63;33.42;100593.50;5055284;28;46335;-67
2021/12/24 06:08:40;;;;;;;;;10.50;9.50;;;;;20.63;33.55;100590.84;5057429;28;45422;-68
2021/12/24 06:11:06;;;;;;;;;9.00;9.00;;;;;20.63;33.55;100593.50;5054928;28;45349;-68
2021/12/24 06:13:32;;;;;;;;;11.00;9.50;;;;;20.62;33.37;100591.88;5053519;28;45509;-67
2021/12/24 06:15:57;;;;;;;;;13.50;10.50;;;;;20.64;33.47;100599.59;5054932;28;45506;-68
2021/12/24 06:18:26;;;;;;;;;11.00;10.00;;;;;20.65;33.43;100595.97;5054625;28;45430;-68
2021/12/24 06:20:55;;;;;;;;;12.25;9.00;;;;;20.62;33.45;100578.66;5056975;28;45338;-68
2021/12/24 06:23:24;;;;;;;;;9.00;7.75;;;;;20.66;33.68;100575.66;5054520;28;45319;-68
2021/12/24 06:25:53;;;;;;;;;9.50;8.25;;;;;20.65;33.52;100580.13;5054645;28;46552;-68
2021/12/24 06:28:19;;;;;;;;;11.75;9.00;;;;;20.65;33.65;100577.47;5054697;28;45387;-68
2021/12/24 06:30:44;;;;;;;;;10.75;10.75;;;;;20.65;33.68;100577.47;5054682;28;45409;-68
2021/12/24 06:33:10;;;;;;;;;16.25;13.00;;;;;20.67;33.78;100577.28;5054600;28;45366;-68
2021/12/24 06:35:36;;;;;;;;;10.50;9.75;;;;;20.63;33.58;100569.69;5056782;28;45663;-68
2021/12/24 06:38:04;;;;;;;;;11.50;8.25;;;;;20.62;33.68;100569.91;5054548;28;46166;-68
2021/12/24 06:40:29;;;;;;;;;8.25;8.25;;;;;20.61;33.54;100581.44;5034861;28;45449;-68
2021/12/24 06:42:54;;;;;;;;;12.00;10.75;;;;;20.60;33.61;100579.81;5054695;28;45291;-68
2021/12/24 06:45:24;;;;;;;;;13.25;11.00;;;;;20.63;33.66;100588.22;5054448;28;46016;-67
2021/12/24 06:47:52;;;;;;;;;9.50;8.25;;;;;20.62;33.74;100586.59;5052150;28;45375;-68
2021/12/24 06:50:17;;;;;;;;;8.75;8.50;;;;;20.63;33.88;100592.69;5053983;28;45327;-67
2021/12/24 06:52:43;;;;;;;;;11.00;9.50;;;;;20.66;34.01;100608.19;5052872;28;45340;-68
2021/12/24 06:55:10;;;;;;;;;13.75;9.25;;;;;20.65;33.73;100605.72;5054341;28;46484;-68
2021/12/24 06:57:37;;;;;;;;;12.50;10.75;;;;;20.65;33.82;100611.84;5054379;28;45497;-67
2021/12/24 07:00:04;;;;;;;;;10.50;10.00;;;;;20.65;33.73;100609.19;5054825;28;45445;-68
2021/12/24 07:02:29;;;;;;;;;9.25;9.25;;;;;20.66;33.73;100605.53;5055883;28;45468;-68
2021/12/24 07:04:55;;;;;;;;;11.75;9.00;;;;;20.60;33.68;100593.88;5053646;28;45512;-68
2021/12/24 07:07:20;;;;;;;;;10.75;9.50;;;;;20.60;33.78;100598.34;5054080;28;45544;-68
2021/12/24 07:09:45;;;;;;;;;12.50;9.50;;;;;20.61;33.82;100594.66;5054310;28;45392;-67
2021/12/24 07:12:13;;;;;;;;;14.75;11.00;;;;;20.64;33.78;100602.25;5054276;28;45859;-67
2021/12/24 07:14:40;;;;;;;;;10.75;10.00;;;;;20.63;33.95;100597.97;5056123;28;46443;-68
2021/12/24 07:17:06;;;;;;;;;13.00;10.75;;;;;20.59;33.79;100594.84;5053682;28;45567;-68
2021/12/24 07:19:32;;;;;;;;;10.50;9.50;;;;;20.61;33.76;100598.16;5052247;28;45299;-68
2021/12/24 07:21:57;;;;;;;;;11.00;10.25;;;;;20.57;33.80;100583.66;5053878;28;45476;-68
2021/12/24 07:24:22;;;;;;;;;13.25;10.75;;;;;20.61;34.01;100598.16;5053816;28;46641;-68
2021/12/24 07:26:48;;;;;;;;;12.75;12.00;;;;;20.62;33.73;100583.94;5056254;28;45443;-67
2021/12/24 07:29:13;;;;;;;;;11.00;8.75;;;;;20.59;33.92;100576.34;5053769;28;45216;-68
2021/12/24 07:31:38;;;;;;;;;11.00;10.25;;;;;20.59;33.75;100581.63;5052165;28;45475;-68
2021/12/24 07:34:04;;;;;;;;;12.25;11.00;;;;;20.61;34.07;100579.63;5053620;28;46036;-68
2021/12/24 07:36:29;;;;;;;;;11.25;10.00;;;;;20.63;33.98;100580.28;5053741;28;45477;-68
2021/12/24 07:38:55;;;;;;;;;14.00;10.00;;;;;20.62;33.75;100578.66;5055093;28;45196;-68
2021/12/24 07:41:20;;;;;;;;;13.00;11.00;;;;;20.62;33.95;100581.28;5054472;28;45683;-68
2021/12/24 07:43:46;;;;;;;;;11.25;11.25;;;;;20.57;33.82;100573.06;5053526;28;46105;-67
2021/12/24 07:46:11;;;;;;;;;13.50;10.25;;;;;20.59;33.83;100575.53;5052803;28;45361;-68
2021/12/24 07:48:44;;;;;;;;;9.50;9.50;;;;;20.61;33.79;100582.28;5053735;28;45438;-67
2021/12/24 07:54:00;;;;;;;;;11.50;10.25;;;;;20.60;33.92;100575.38;5051423;28;45701;-68
2021/12/24 07:56:29;;;;;;;;;12.25;9.00;;;;;20.60;33.76;100583.31;5054729;28;45365;-68
2021/12/24 07:58:54;;;;;;;;;10.75;10.00;;;;;20.61;33.92;100584.94;5051777;28;45299;-68
2021/12/24 08:01:25;;;;;;;;;9.00;9.00;;;;;20.61;33.88;100577.00;5053051;28;45576;-67
2021/12/24 08:03:52;;;;;;;;;11.00;11.00;;;;;20.61;33.96;100578.81;5053231;28;46094;-68
2021/12/24 08:06:19;;;;;;;;;15.25;13.00;;;;;20.62;33.79;100580.47;5053477;28;45612;-67
2021/12/24 08:08:45;;;;;;;;;12.25;11.25;;;;;20.59;34.15;100576.34;5055516;28;45301;-67
2021/12/24 08:11:10;;;;;;;;;12.00;10.25;;;;;20.59;34.01;100573.72;5051875;28;45425;-68
2021/12/24 08:13:35;;;;;;;;;13.50;11.00;;;;;20.61;33.69;100581.44;5052953;28;46139;-69
2021/12/24 08:16:01;;;;;;;;;10.00;9.25;;;;;20.63;33.80;100582.13;5051899;28;45222;-68
2021/12/24 08:18:26;;;;;;;;;17.25;13.50;;;;;20.64;33.89;100565.25;5055834;28;45494;-68
2021/12/24 08:20:52;;;;;;;;;14.00;9.75;;;;;20.64;33.81;100567.88;5058812;28;45469;-67
2021/12/24 08:23:17;;;;;;;;;11.00;10.00;;;;;20.60;33.92;100563.97;5056906;28;47230;-67
2021/12/24 08:25:42;;;;;;;;;12.00;10.75;;;;;20.61;33.85;100563.78;5056568;28;45373;-67
2021/12/24 08:28:08;;;;;;;;;11.00;11.00;;;;;20.67;33.82;100564.91;5056803;28;45499;-68
2021/12/24 08:30:33;;;;;;;;;12.75;12.75;;;;;20.61;33.99;100552.38;5056493;28;45322;-68
2021/12/24 08:33:01;;;;;;;;;12.25;10.75;;;;;20.63;33.82;100561.78;5057999;28;46086;-68
2021/12/24 08:35:27;;;;;;;;;13.00;11.75;;;;;20.65;33.84;100556.31;5057739;28;45544;-68
2021/12/24 08:37:53;;;;;;;;;13.00;10.75;;;;;20.67;33.90;100564.91;5054929;28;45303;-68
2021/12/24 08:40:19;;;;;;;;;9.25;8.00;;;;;20.67;34.01;100562.25;5056549;28;45231;-68
2021/12/24 08:42:44;;;;;;;;;11.25;10.00;;;;;20.65;34.02;100555.50;5056522;28;46754;-69
2021/12/24 08:45:10;;;;;;;;;12.75;12.00;;;;;20.65;33.91;100555.50;5056262;28;45237;-67
2021/12/24 08:47:36;;;;;;;;;13.25;10.25;;;;;20.67;34.09;100558.78;5058803;28;45236;-67
2021/12/24 08:50:05;;;;;;;;;11.00;11.00;;;;;20.67;34.01;100572.00;5054864;28;45448;-67
2021/12/24 08:52:30;;;;;;;;;10.50;10.50;;;;;20.68;34.18;100574.47;5056185;28;46243;-68
2021/12/24 08:54:56;;;;;;;;;11.75;10.50;;;;;20.63;33.97;100571.56;5056245;28;45411;-68
2021/12/24 08:57:21;;;;;;;;;12.25;12.25;;;;;20.65;33.98;100574.84;5056415;28;45484;-68
2021/12/24 08:59:46;;;;;;;;;11.00;9.50;;;;;20.61;33.77;100566.41;5058168;28;45417;-68
2021/12/24 09:02:12;;;;;;;;;10.25;9.75;;;;;20.63;34.23;100561.78;5056141;28;46500;-68
2021/12/24 09:04:37;;;;;;;;;10.50;9.25;;;;;20.62;33.90;100562.78;5055964;28;45499;-68
2021/12/24 09:07:02;;;;;;;;;12.25;9.50;;;;;20.63;33.95;100560.97;5056185;28;45453;-68
2021/12/24 09:09:29;;;;;;;;;8.75;7.50;;;;;20.62;34.15;100561.97;5056123;28;45343;-68
2021/12/24 09:11:55;;;;;;;;;11.25;11.00;;;;;20.56;34.10;100549.44;5056892;28;47011;-68
2021/12/24 09:14:21;;;;;;;;;9.75;8.50;;;;;20.63;34.06;100568.91;5056763;28;45228;-68
2021/12/24 09:16:48;;;;;;;;;11.50;11.50;;;;;20.63;34.20;100561.78;5054595;28;45603;-68
2021/12/24 09:19:18;;;;;;;;;17.25;10.75;;;;;20.61;33.92;100561.13;5055483;28;45584;-68
2021/12/24 09:21:44;;;;;;;;;9.25;8.50;;;;;20.59;34.15;100557.84;5055869;28;46918;-67
2021/12/24 09:24:09;;;;;;;;;11.50;11.50;;;;;20.63;34.11;100558.34;5055955;28;45563;-68
2021/12/24 09:26:36;;;;;;;;;11.50;8.75;;;;;20.62;34.06;100565.44;5057890;28;45440;-68
2021/12/24 09:29:05;;;;;;;;;10.00;9.50;;;;;20.63;34.17;100575.00;5054152;28;45464;-68
2021/12/24 09:31:30;;;;;;;;;11.75;11.75;;;;;20.58;33.90;100556.19;5055586;28;46999;-68
2021/12/24 09:33:56;;;;;;;;;11.50;10.25;;;;;20.63;33.96;100555.69;5055528;28;45481;-68
2021/12/24 09:36:25;;;;;;;;;11.25;9.50;;;;;20.61;34.00;100557.66;5056145;28;45664;-68
2021/12/24 09:38:57;;;;;;;;;10.75;10.75;;;;;20.63;33.98;100553.03;5057941;28;45344;-68
2021/12/24 09:41:24;;;;;;;;;14.50;11.00;;;;;20.59;34.20;100543.81;5054492;28;45398;-67
2021/12/24 09:43:56;;;;;;;;;13.00;11.50;;;;;20.61;34.18;100555.84;5055378;28;45251;-68
2021/12/24 09:46:21;;;;;;;;;12.50;10.50;;;;;20.62;34.12;100557.50;5055389;28;45516;-68
2021/12/24 09:48:48;;;;;;;;;6.25;5.00;;;;;20.59;34.17;100546.44;5055235;28;45535;-68
2021/12/24 09:51:13;;;;;;;;;11.00;10.00;;;;;20.60;34.12;100538.38;5036754;28;47603;-68
2021/12/24 09:53:39;;;;;;;;;11.00;10.50;;;;;20.59;34.18;100538.53;5056150;28;45364;-67
2021/12/24 09:56:05;;;;;;;;;13.50;11.50;;;;;20.62;34.22;100554.84;5032409;28;45442;-68
2021/12/24 09:58:31;;;;;;;;;12.50;12.50;;;;;20.62;34.04;100548.75;5047389;28;45459;-67
2021/12/24 10:00:57;;;;;;;;;9.75;9.50;;;;;20.53;34.08;100526.88;5054962;28;47429;-67
2021/12/24 10:03:28;;;;;;;;;10.50;10.50;;;;;20.62;34.16;100533.72;5055424;28;45622;-68
2021/12/24 10:05:54;;;;;;;;;14.75;9.75;;;;;20.60;33.97;100522.50;5053397;28;45244;-68
2021/12/24 10:08:22;;;;;;;;;11.75;11.75;;;;;20.60;34.17;100519.88;5055584;28;45219;-67
2021/12/24 10:11:13;;;;;;;;;13.00;10.25;;;;;20.62;34.16;100520.50;5054507;28;45466;-68
2021/12/24 10:13:43;;;;;;;;;10.75;9.25;;;;;20.58;34.09;100519.19;5054945;28;45411;-68
2021/12/24 10:16:09;;;;;;;;;11.50;11.50;;;;;20.55;34.28;100516.94;5054914;28;45409;-68
2021/12/24 10:18:40;;;;;;;;;11.50;9.25;;;;;20.62;34.23;100527.59;5053681;28;45512;-68
2021/12/24 10:21:15;;;;;;;;;12.75;9.50;;;;;20.62;34.13;100533.72;5055008;28;47149;-67
2021/12/24 10:23:48;;;;;;;;;9.75;9.75;;;;;20.65;34.14;100531.72;5055872;28;45385;-68
2021/12/24 10:26:24;;;;;;;;;8.25;8.25;;;;;20.65;34.14;100523.78;5054448;28;45658;-68
2021/12/24 10:28:54;;;;;;;;;8.50;8.50;;;;;20.64;34.24;100522.94;5054610;28;45500;-68
2021/12/24 10:31:31;;;;;;;;;9.00;9.00;;;;;20.63;34.04;100522.13;5054577;28;47335;-68
2021/12/24 10:34:25;;;;;;;;;12.00;9.50;;;;;20.66;34.11;100528.88;5053020;28;46519;-68
2021/12/24 10:36:52;;;;;;;;;11.75;10.50;;;;;20.65;34.19;100535.19;5051032;28;45318;-68
2021/12/24 10:39:18;;;;;;;;;14.75;11.75;;;;;20.66;33.83;100530.72;5054197;28;45624;-68
2021/12/24 10:41:46;;;;;;;;;8.50;8.50;;;;;20.65;34.04;100532.53;5055929;28;46447;-68
2021/12/24 10:44:21;;;;;;;;;14.50;11.50;;;;;20.66;34.12;100531.53;5054414;28;45276;-67
2021/12/24 10:47:09;;;;;;;;;13.00;10.00;;;;;20.68;34.29;100534.00;5052914;28;45495;-67
2021/12/24 10:50:24;;;;;;;;;8.75;8.00;;;;;20.65;34.29;100521.13;5054481;28;45485;-68
2021/12/24 10:55:28;;;;;;;;;9.25;9.25;;;;;20.64;34.20;100517.66;5054014;28;45379;-68
2021/12/24 10:57:59;;;;;;;;;16.50;13.00;;;;;20.65;34.20;100508.75;5053693;28;45456;-67
2021/12/24 11:00:27;;;;;;;;;10.00;9.50;;;;;20.68;34.17;100516.31;5037263;28;45478;-68
2021/12/24 11:02:58;;;;;;;;;8.50;8.50;;;;;20.63;34.30;100516.03;5056156;28;45343;-67
2021/12/24 11:05:31;;;;;;;;;9.75;9.00;;;;;20.67;34.35;100505.91;5054972;28;45386;-67
2021/12/24 11:07:59;;;;;;;;;13.25;9.75;;;;;20.66;34.25;100494.50;5053835;28;45508;-68
2021/12/24 11:10:27;;;;;;;;;7.75;7.50;;;;;20.67;34.25;100487.41;5054004;28;45441;-67
2021/12/24 11:12:58;;;;;;;;;11.50;8.75;;;;;20.67;34.10;100492.69;5052326;28;46831;-68
2021/12/24 11:15:31;;;;;;;;;6.75;6.75;;;;;20.66;34.22;100501.66;5038546;28;45409;-67
2021/12/24 11:18:23;;;;;;;;;9.75;9.00;;;;;20.62;34.29;100485.31;5055432;28;45319;-69
2021/12/24 11:20:52;;;;;;;;;12.00;10.25;;;;;20.64;34.11;100480.66;5051860;28;45437;-68
2021/12/24 11:23:20;;;;;;;;;12.25;11.75;;;;;20.66;34.43;100491.06;5052210;28;45422;-68
2021/12/24 11:25:49;;;;;;;;;10.50;7.00;;;;;20.66;34.36;100488.44;5052289;28;45606;-68
2021/12/24 11:28:16;;;;;;;;;9.25;7.00;;;;;20.64;34.34;100488.59;5053789;28;45537;-68
2021/12/24 11:30:49;;;;;;;;;9.75;8.75;;;;;20.62;34.16;100477.38;5054075;28;45398;-68
2021/12/24 11:33:17;;;;;;;;;7.75;7.75;;;;;20.66;34.33;100475.22;5053617;28;45390;-68
2021/12/24 11:35:48;;;;;;;;;10.50;9.00;;;;;20.64;34.27;100478.00;5055667;28;45449;-67
2021/12/24 11:38:16;;;;;;;;;9.00;9.00;;;;;20.62;34.22;100478.22;5053368;28;45560;-68
2021/12/24 11:40:42;;;;;;;;;10.75;10.50;;;;;20.65;34.17;100478.84;5053473;28;45424;-67
2021/12/24 11:43:07;;;;;;;;;11.00;10.50;;;;;20.61;34.45;100473.91;5053446;28;46112;-69
2021/12/24 11:45:33;;;;;;;;;10.00;9.50;;;;;20.62;34.39;100465.00;5053432;28;45835;-68
2021/12/24 11:48:01;;;;;;;;;9.00;9.00;;;;;20.63;34.43;100458.69;5054871;28;45302;-68
2021/12/24 11:50:27;;;;;;;;;9.00;7.50;;;;;20.61;34.45;100455.41;5055743;28;45548;-68
2021/12/24 11:52:56;;;;;;;;;10.00;10.00;;;;;20.61;34.29;100452.75;5050321;28;46161;-68
2021/12/24 11:55:24;;;;;;;;;8.50;8.25;;;;;20.63;34.44;100444.66;5053563;28;45440;-67
2021/12/24 11:58:05;;;;;;;;;8.50;7.50;;;;;20.61;34.38;100441.34;5053601;28;45597;-68
2021/12/24 12:00:42;;;;;;;;;9.00;8.00;;;;;20.63;34.31;100437.53;5019582;28;45595;-67
2021/12/24 12:03:11;;;;;;;;;10.75;8.25;;;;;20.63;34.52;100434.09;5054079;28;46560;-68
2021/12/24 12:05:41;;;;;;;;;11.00;10.00;;;;;20.62;34.46;100432.44;5053787;28;45344;-68
2021/12/24 12:08:25;;;;;;;;;9.75;9.75;;;;;20.62;34.51;100430.63;5053044;28;45415;-68
2021/12/24 12:11:07;;;;;;;;;11.25;9.00;;;;;20.63;34.43;100426.16;5053407;28;45289;-68
2021/12/24 12:13:47;;;;;;;;;12.50;10.25;;;;;20.61;34.52;100428.97;5052982;28;47109;-68
2021/12/24 12:16:25;;;;;;;;;9.25;8.25;;;;;20.61;34.52;100428.97;5053140;28;45346;-68
2021/12/24 12:19:11;;;;;;;;;10.50;10.50;;;;;20.60;34.54;100422.06;5053448;28;45406;-67
2021/12/24 12:21:44;;;;;;;;;7.75;7.75;;;;;20.62;34.63;100427.16;5037492;28;45576;-68
2021/12/24 12:26:41;;;;;;;;;10.50;9.00;;;;;20.62;34.38;100400.72;5055371;28;45411;-68
2021/12/24 12:29:41;;;;;;;;;7.75;7.50;;;;;20.60;34.39;100397.44;5052966;28;45470;-68
2021/12/24 12:32:13;;;;;;;;;8.00;7.00;;;;;20.63;34.49;100397.88;4953384;28;45436;-68
2021/12/24 12:34:38;;;;;;;;;10.00;7.50;;;;;20.63;34.42;100391.81;4953175;28;46152;-68
2021/12/24 12:37:31;;;;;;;;;8.50;8.00;;;;;20.62;34.43;100393.63;4952863;28;45417;-68
2021/12/24 12:40:16;;;;;;;;;10.50;8.75;;;;;20.62;34.59;100404.19;4953385;28;45470;-68
2021/12/24 12:43:08;;;;;;;;;7.75;7.00;;;;;20.64;34.46;100401.34;4953657;28;45674;-67
2021/12/24 12:45:35;;;;;;;;;8.00;8.00;;;;;20.65;34.40;100410.94;4939313;28;47379;-68
2021/12/24 12:48:04;;;;;;;;;9.50;9.00;;;;;20.65;34.38;100408.28;4952648;28;45521;-67
2021/12/24 12:50:30;;;;;;;;;9.75;7.00;;;;;20.67;34.50;100405.47;4953506;28;45473;-68
2021/12/24 12:53:23;;;;;;;;;10.00;9.00;;;;;20.68;34.54;100404.47;4953331;28;45622;-68
2021/12/24 12:56:08;;;;;;;;;10.50;9.00;;;;;20.67;34.44;100410.75;4952712;28;46727;-68
2021/12/24 12:58:34;;;;;;;;;7.25;7.25;;;;;20.68;34.38;100401.81;4952896;28;45609;-68
2021/12/24 13:01:06;;;;;;;;;8.00;8.00;;;;;20.68;34.47;100391.25;4953046;28;45545;-69
2021/12/24 13:03:57;;;;;;;;;6.75;6.50;;;;;20.68;34.51;100399.19;4954120;28;45547;-68